sensor_id;sensor_type;location;lat;lon;timestamp;temperature;humidity
68177;DHT22;56478;50.982;7.032;2023-07-31T00:01:49;18.09;84.48
68177;DHT22;56478;50.982;7.032;2023-07-31T00:04:15;18.02;84.57
68177;DHT22;56478;50.982;7.032;2023-07-31T00:06:40;18.02;83.63
68177;DHT22;56478;50.982;7.032;2023-07-31T00:09:06;18.04;84.05
68177;DHT22;56478;50.982;7.032;2023-07-31T00:11:31;18.04;83.69
68177;DHT22;56478;50.982;7.032;2023-07-31T00:13:57;18.09;83.95
68177;DHT22;56478;50.982;7.032;2023-07-31T00:16:23;18.02;83.15
68177;DHT22;56478;50.982;7.032;2023-07-31T00:18:55;18.02;83.12
68177;DHT22;56478;50.982;7.032;2023-07-31T00:21:23;18.07;83.90
68177;DHT22;56478;50.982;7.032;2023-07-31T00:23:48;18.03;83.80
68177;DHT22;56478;50.982;7.032;2023-07-31T00:26:14;18.02;83.40
68177;DHT22;56478;50.982;7.032;2023-07-31T00:28:39;18.03;84.74
68177;DHT22;56478;50.982;7.032;2023-07-31T00:31:05;17.99;84.81
68177;DHT22;56478;50.982;7.032;2023-07-31T00:33:31;18.02;85.16
68177;DHT22;56478;50.982;7.032;2023-07-31T00:35:57;17.99;84.21
68177;DHT22;56478;50.982;7.032;2023-07-31T00:38:22;18.00;84.73
68177;DHT22;56478;50.982;7.032;2023-07-31T00:40:48;18.02;84.38
68177;DHT22;56478;50.982;7.032;2023-07-31T00:43:13;17.96;84.31
68177;DHT22;56478;50.982;7.032;2023-07-31T00:45:39;17.96;84.24
68177;DHT22;56478;50.982;7.032;2023-07-31T00:48:05;18.03;84.84
68177;DHT22;56478;50.982;7.032;2023-07-31T00:50:35;18.00;83.76
68177;DHT22;56478;50.982;7.032;2023-07-31T00:53:01;17.97;83.70
68177;DHT22;56478;50.982;7.032;2023-07-31T00:55:26;18.00;84.30
68177;DHT22;56478;50.982;7.032;2023-07-31T00:57:52;18.02;84.28
68177;DHT22;56478;50.982;7.032;2023-07-31T01:00:21;18.02;84.53
68177;DHT22;56478;50.982;7.032;2023-07-31T01:02:47;17.99;83.43
68177;DHT22;56478;50.982;7.032;2023-07-31T01:05:13;18.06;83.27
68177;DHT22;56478;50.982;7.032;2023-07-31T01:12:38;18.10;82.76
68177;DHT22;56478;50.982;7.032;2023-07-31T01:15:08;18.11;82.16
68177;DHT22;56478;50.982;7.032;2023-07-31T01:17:38;18.18;82.33
68177;DHT22;56478;50.982;7.032;2023-07-31T01:20:08;18.18;81.87
68177;DHT22;56478;50.982;7.032;2023-07-31T01:28:01;18.06;81.27
68177;DHT22;56478;50.982;7.032;2023-07-31T01:30:33;18.02;81.82
68177;DHT22;56478;50.982;7.032;2023-07-31T01:33:01;18.07;81.98
68177;DHT22;56478;50.982;7.032;2023-07-31T01:35:35;18.06;82.13
68177;DHT22;56478;50.982;7.032;2023-07-31T01:38:01;18.10;82.15
68177;DHT22;56478;50.982;7.032;2023-07-31T01:40:27;18.07;81.03
68177;DHT22;56478;50.982;7.032;2023-07-31T01:42:52;18.14;80.97
68177;DHT22;56478;50.982;7.032;2023-07-31T01:45:18;18.13;81.21
68177;DHT22;56478;50.982;7.032;2023-07-31T01:47:44;18.13;81.32
68177;DHT22;56478;50.982;7.032;2023-07-31T01:50:09;18.11;80.19
68177;DHT22;56478;50.982;7.032;2023-07-31T01:52:35;18.10;80.29
68177;DHT22;56478;50.982;7.032;2023-07-31T01:55:01;18.14;81.83
68177;DHT22;56478;50.982;7.032;2023-07-31T01:57:26;18.10;80.90
68177;DHT22;56478;50.982;7.032;2023-07-31T01:59:52;18.11;80.28
68177;DHT22;56478;50.982;7.032;2023-07-31T02:02:19;18.14;80.97
68177;DHT22;56478;50.982;7.032;2023-07-31T02:04:45;18.13;80.86
68177;DHT22;56478;50.982;7.032;2023-07-31T02:07:11;18.14;80.65
68177;DHT22;56478;50.982;7.032;2023-07-31T02:09:36;18.18;80.31
68177;DHT22;56478;50.982;7.032;2023-07-31T02:12:02;18.18;80.41
68177;DHT22;56478;50.982;7.032;2023-07-31T02:14:27;18.21;81.64
68177;DHT22;56478;50.982;7.032;2023-07-31T02:16:53;18.26;80.93
68177;DHT22;56478;50.982;7.032;2023-07-31T02:19:19;18.24;80.63
68177;DHT22;56478;50.982;7.032;2023-07-31T02:21:44;18.21;80.77
68177;DHT22;56478;50.982;7.032;2023-07-31T02:24:10;18.27;80.62
68177;DHT22;56478;50.982;7.032;2023-07-31T02:26:35;18.24;80.79
68177;DHT22;56478;50.982;7.032;2023-07-31T02:29:01;18.24;82.22
68177;DHT22;56478;50.982;7.032;2023-07-31T02:31:26;18.26;82.10
68177;DHT22;56478;50.982;7.032;2023-07-31T02:33:52;18.26;81.17
68177;DHT22;56478;50.982;7.032;2023-07-31T02:36:18;18.27;80.84
68177;DHT22;56478;50.982;7.032;2023-07-31T02:38:44;18.26;81.25
68177;DHT22;56478;50.982;7.032;2023-07-31T02:41:09;18.30;82.92
68177;DHT22;56478;50.982;7.032;2023-07-31T02:43:35;18.28;81.82
68177;DHT22;56478;50.982;7.032;2023-07-31T02:46:00;18.30;81.71
68177;DHT22;56478;50.982;7.032;2023-07-31T02:48:26;18.33;81.66
68177;DHT22;56478;50.982;7.032;2023-07-31T02:50:51;18.31;80.84
68177;DHT22;56478;50.982;7.032;2023-07-31T02:53:17;18.31;79.93
68177;DHT22;56478;50.982;7.032;2023-07-31T02:55:43;18.34;80.72
68177;DHT22;56478;50.982;7.032;2023-07-31T02:58:08;18.33;81.97
68177;DHT22;56478;50.982;7.032;2023-07-31T03:00:34;18.34;80.02
68177;DHT22;56478;50.982;7.032;2023-07-31T03:02:59;18.38;81.84
68177;DHT22;56478;50.982;7.032;2023-07-31T03:05:25;18.35;81.10
68177;DHT22;56478;50.982;7.032;2023-07-31T03:07:50;18.38;81.58
68177;DHT22;56478;50.982;7.032;2023-07-31T03:10:16;18.37;80.83
68177;DHT22;56478;50.982;7.032;2023-07-31T03:12:42;18.37;83.23
68177;DHT22;56478;50.982;7.032;2023-07-31T03:15:08;18.33;82.73
68177;DHT22;56478;50.982;7.032;2023-07-31T03:17:33;18.34;79.80
68177;DHT22;56478;50.982;7.032;2023-07-31T03:19:59;18.40;82.60
68177;DHT22;56478;50.982;7.032;2023-07-31T03:22:24;18.41;81.35
68177;DHT22;56478;50.982;7.032;2023-07-31T03:24:50;18.38;82.51
68177;DHT22;56478;50.982;7.032;2023-07-31T03:27:15;18.40;81.84
68177;DHT22;56478;50.982;7.032;2023-07-31T03:29:41;18.48;82.92
68177;DHT22;56478;50.982;7.032;2023-07-31T03:32:07;18.41;80.86
68177;DHT22;56478;50.982;7.032;2023-07-31T03:34:32;18.41;80.46
68177;DHT22;56478;50.982;7.032;2023-07-31T03:36:58;18.38;80.86
68177;DHT22;56478;50.982;7.032;2023-07-31T03:39:24;18.38;80.53
68177;DHT22;56478;50.982;7.032;2023-07-31T03:41:49;18.43;79.84
68177;DHT22;56478;50.982;7.032;2023-07-31T03:44:15;18.41;79.45
68177;DHT22;56478;50.982;7.032;2023-07-31T03:46:40;18.47;79.56
68177;DHT22;56478;50.982;7.032;2023-07-31T03:49:06;18.44;80.40
68177;DHT22;56478;50.982;7.032;2023-07-31T03:51:32;18.40;80.59
68177;DHT22;56478;50.982;7.032;2023-07-31T03:53:57;18.33;80.85
68177;DHT22;56478;50.982;7.032;2023-07-31T03:56:23;18.30;81.48
68177;DHT22;56478;50.982;7.032;2023-07-31T03:58:48;18.28;81.22
68177;DHT22;56478;50.982;7.032;2023-07-31T04:01:14;18.23;81.13
68177;DHT22;56478;50.982;7.032;2023-07-31T04:03:39;18.24;81.40
68177;DHT22;56478;50.982;7.032;2023-07-31T04:06:05;18.30;81.77
68177;DHT22;56478;50.982;7.032;2023-07-31T04:08:32;18.28;81.18
68177;DHT22;56478;50.982;7.032;2023-07-31T04:10:57;18.37;80.98
68177;DHT22;56478;50.982;7.032;2023-07-31T04:13:23;18.40;80.76
68177;DHT22;56478;50.982;7.032;2023-07-31T04:15:49;18.34;81.39
68177;DHT22;56478;50.982;7.032;2023-07-31T04:18:16;18.35;80.74
68177;DHT22;56478;50.982;7.032;2023-07-31T04:20:41;18.40;80.96
68177;DHT22;56478;50.982;7.032;2023-07-31T04:23:07;18.33;81.04
68177;DHT22;56478;50.982;7.032;2023-07-31T04:25:32;18.33;81.09
68177;DHT22;56478;50.982;7.032;2023-07-31T04:28:00;18.31;81.13
68177;DHT22;56478;50.982;7.032;2023-07-31T04:30:26;18.41;81.78
68177;DHT22;56478;50.982;7.032;2023-07-31T04:32:51;18.48;81.82
68177;DHT22;56478;50.982;7.032;2023-07-31T04:35:17;18.44;83.11
68177;DHT22;56478;50.982;7.032;2023-07-31T04:37:42;18.43;82.89
68177;DHT22;56478;50.982;7.032;2023-07-31T04:40:10;18.45;84.19
68177;DHT22;56478;50.982;7.032;2023-07-31T04:42:35;18.41;82.83
68177;DHT22;56478;50.982;7.032;2023-07-31T04:45:01;18.44;83.42
68177;DHT22;56478;50.982;7.032;2023-07-31T04:47:27;18.47;83.83
68177;DHT22;56478;50.982;7.032;2023-07-31T04:49:52;18.49;82.34
68177;DHT22;56478;50.982;7.032;2023-07-31T04:52:18;18.49;82.40
68177;DHT22;56478;50.982;7.032;2023-07-31T04:54:43;18.54;81.46
68177;DHT22;56478;50.982;7.032;2023-07-31T04:57:09;18.49;81.14
68177;DHT22;56478;50.982;7.032;2023-07-31T04:59:35;18.51;80.17
68177;DHT22;56478;50.982;7.032;2023-07-31T05:02:01;18.61;82.12
68177;DHT22;56478;50.982;7.032;2023-07-31T05:04:26;18.66;79.25
68177;DHT22;56478;50.982;7.032;2023-07-31T05:06:52;18.75;79.23
68177;DHT22;56478;50.982;7.032;2023-07-31T05:09:17;18.76;80.41
68177;DHT22;56478;50.982;7.032;2023-07-31T05:11:43;18.79;79.34
68177;DHT22;56478;50.982;7.032;2023-07-31T05:14:09;18.86;80.70
68177;DHT22;56478;50.982;7.032;2023-07-31T05:16:34;18.95;80.15
68177;DHT22;56478;50.982;7.032;2023-07-31T05:19:00;19.03;78.90
68177;DHT22;56478;50.982;7.032;2023-07-31T05:21:26;19.02;78.13
68177;DHT22;56478;50.982;7.032;2023-07-31T05:23:51;19.02;79.01
68177;DHT22;56478;50.982;7.032;2023-07-31T05:26:17;19.06;79.80
68177;DHT22;56478;50.982;7.032;2023-07-31T05:28:43;19.20;76.50
68177;DHT22;56478;50.982;7.032;2023-07-31T05:31:08;19.30;75.96
68177;DHT22;56478;50.982;7.032;2023-07-31T05:33:34;19.20;75.74
68177;DHT22;56478;50.982;7.032;2023-07-31T05:35:59;19.15;76.23
68177;DHT22;56478;50.982;7.032;2023-07-31T05:38:25;19.23;77.15
68177;DHT22;56478;50.982;7.032;2023-07-31T05:40:51;19.32;76.31
68177;DHT22;56478;50.982;7.032;2023-07-31T05:43:16;19.32;76.86
68177;DHT22;56478;50.982;7.032;2023-07-31T05:45:42;19.28;75.44
68177;DHT22;56478;50.982;7.032;2023-07-31T05:48:09;19.25;75.46
68177;DHT22;56478;50.982;7.032;2023-07-31T05:50:35;19.24;75.82
68177;DHT22;56478;50.982;7.032;2023-07-31T05:53:00;19.38;75.65
68177;DHT22;56478;50.982;7.032;2023-07-31T05:55:26;19.41;77.79
68177;DHT22;56478;50.982;7.032;2023-07-31T05:57:54;19.39;77.85
68177;DHT22;56478;50.982;7.032;2023-07-31T06:00:20;19.39;79.80
68177;DHT22;56478;50.982;7.032;2023-07-31T06:02:47;19.28;80.11
68177;DHT22;56478;50.982;7.032;2023-07-31T06:05:13;19.31;76.15
68177;DHT22;56478;50.982;7.032;2023-07-31T06:07:38;19.32;77.99
68177;DHT22;56478;50.982;7.032;2023-07-31T06:10:04;19.34;80.61
68177;DHT22;56478;50.982;7.032;2023-07-31T06:12:34;19.24;79.74
68177;DHT22;56478;50.982;7.032;2023-07-31T06:15:00;19.14;79.64
68177;DHT22;56478;50.982;7.032;2023-07-31T06:17:26;19.08;78.03
68177;DHT22;56478;50.982;7.032;2023-07-31T06:19:52;19.11;78.67
68177;DHT22;56478;50.982;7.032;2023-07-31T06:22:17;19.03;80.39
68177;DHT22;56478;50.982;7.032;2023-07-31T06:24:43;18.99;81.25
68177;DHT22;56478;50.982;7.032;2023-07-31T06:27:10;18.92;82.64
68177;DHT22;56478;50.982;7.032;2023-07-31T06:29:35;18.79;80.30
68177;DHT22;56478;50.982;7.032;2023-07-31T06:32:01;18.80;82.62
68177;DHT22;56478;50.982;7.032;2023-07-31T06:34:27;18.89;81.44
68177;DHT22;56478;50.982;7.032;2023-07-31T06:36:52;18.79;82.48
68177;DHT22;56478;50.982;7.032;2023-07-31T06:39:18;18.88;82.51
68177;DHT22;56478;50.982;7.032;2023-07-31T06:41:44;18.86;82.39
68177;DHT22;56478;50.982;7.032;2023-07-31T06:44:10;18.93;82.50
68177;DHT22;56478;50.982;7.032;2023-07-31T06:46:35;18.88;83.06
68177;DHT22;56478;50.982;7.032;2023-07-31T06:49:01;18.93;84.07
68177;DHT22;56478;50.982;7.032;2023-07-31T06:51:27;18.90;82.94
68177;DHT22;56478;50.982;7.032;2023-07-31T06:53:53;19.02;84.03
68177;DHT22;56478;50.982;7.032;2023-07-31T06:56:18;19.03;83.81
68177;DHT22;56478;50.982;7.032;2023-07-31T06:58:44;19.13;83.05
68177;DHT22;56478;50.982;7.032;2023-07-31T07:01:09;19.23;81.57
68177;DHT22;56478;50.982;7.032;2023-07-31T07:03:35;19.41;81.56
68177;DHT22;56478;50.982;7.032;2023-07-31T07:06:00;19.62;80.39
68177;DHT22;56478;50.982;7.032;2023-07-31T07:08:26;19.65;80.11
68177;DHT22;56478;50.982;7.032;2023-07-31T07:10:52;19.47;81.09
68177;DHT22;56478;50.982;7.032;2023-07-31T07:13:17;19.38;80.20
68177;DHT22;56478;50.982;7.032;2023-07-31T07:15:47;19.47;80.39
68177;DHT22;56478;50.982;7.032;2023-07-31T07:18:13;19.44;79.26
68177;DHT22;56478;50.982;7.032;2023-07-31T07:20:39;19.34;80.23
68177;DHT22;56478;50.982;7.032;2023-07-31T07:23:05;19.24;80.20
68177;DHT22;56478;50.982;7.032;2023-07-31T07:25:31;19.21;82.32
68177;DHT22;56478;50.982;7.032;2023-07-31T07:27:56;19.14;80.78
68177;DHT22;56478;50.982;7.032;2023-07-31T07:30:22;19.17;82.10
68177;DHT22;56478;50.982;7.032;2023-07-31T07:32:50;19.27;80.55
68177;DHT22;56478;50.982;7.032;2023-07-31T07:35:16;19.17;83.47
68177;DHT22;56478;50.982;7.032;2023-07-31T07:37:41;19.11;82.65
68177;DHT22;56478;50.982;7.032;2023-07-31T07:40:07;19.00;83.29
68177;DHT22;56478;50.982;7.032;2023-07-31T07:42:33;18.96;83.58
68177;DHT22;56478;50.982;7.032;2023-07-31T07:44:59;18.95;84.85
68177;DHT22;56478;50.982;7.032;2023-07-31T07:47:24;19.03;84.34
68177;DHT22;56478;50.982;7.032;2023-07-31T07:49:50;18.89;84.33
68177;DHT22;56478;50.982;7.032;2023-07-31T07:52:15;18.92;85.80
68177;DHT22;56478;50.982;7.032;2023-07-31T07:54:41;19.00;86.04
68177;DHT22;56478;50.982;7.032;2023-07-31T07:57:06;18.96;84.19
68177;DHT22;56478;50.982;7.032;2023-07-31T07:59:32;19.00;84.39
68177;DHT22;56478;50.982;7.032;2023-07-31T08:01:57;18.96;85.20
68177;DHT22;56478;50.982;7.032;2023-07-31T08:04:23;18.93;83.97
68177;DHT22;56478;50.982;7.032;2023-07-31T08:06:48;18.79;85.08
68177;DHT22;56478;50.982;7.032;2023-07-31T08:09:14;18.92;86.11
68177;DHT22;56478;50.982;7.032;2023-07-31T08:11:40;18.92;85.34
68177;DHT22;56478;50.982;7.032;2023-07-31T08:14:05;18.89;85.27
68177;DHT22;56478;50.982;7.032;2023-07-31T08:16:31;18.90;85.12
68177;DHT22;56478;50.982;7.032;2023-07-31T08:18:56;18.86;85.29
68177;DHT22;56478;50.982;7.032;2023-07-31T08:21:22;18.85;84.43
68177;DHT22;56478;50.982;7.032;2023-07-31T08:23:48;18.99;84.24
68177;DHT22;56478;50.982;7.032;2023-07-31T08:26:20;19.00;85.35
68177;DHT22;56478;50.982;7.032;2023-07-31T08:28:46;18.96;82.64
68177;DHT22;56478;50.982;7.032;2023-07-31T08:31:11;18.99;81.60
68177;DHT22;56478;50.982;7.032;2023-07-31T08:33:38;18.93;81.70
68177;DHT22;56478;50.982;7.032;2023-07-31T08:36:04;18.86;81.86
68177;DHT22;56478;50.982;7.032;2023-07-31T08:38:30;18.97;79.82
68177;DHT22;56478;50.982;7.032;2023-07-31T08:40:58;18.99;82.44
68177;DHT22;56478;50.982;7.032;2023-07-31T08:43:27;19.00;82.52
68177;DHT22;56478;50.982;7.032;2023-07-31T08:45:53;18.97;82.67
68177;DHT22;56478;50.982;7.032;2023-07-31T08:48:23;18.96;82.77
68177;DHT22;56478;50.982;7.032;2023-07-31T08:50:49;18.93;82.58
68177;DHT22;56478;50.982;7.032;2023-07-31T08:53:15;18.90;83.02
68177;DHT22;56478;50.982;7.032;2023-07-31T08:55:43;18.85;82.99
68177;DHT22;56478;50.982;7.032;2023-07-31T08:58:09;18.86;83.61
68177;DHT22;56478;50.982;7.032;2023-07-31T09:00:38;18.89;83.88
68177;DHT22;56478;50.982;7.032;2023-07-31T09:03:09;18.89;84.45
68177;DHT22;56478;50.982;7.032;2023-07-31T09:05:39;18.93;84.77
68177;DHT22;56478;50.982;7.032;2023-07-31T09:08:07;18.95;84.51
68177;DHT22;56478;50.982;7.032;2023-07-31T09:10:34;19.06;85.15
68177;DHT22;56478;50.982;7.032;2023-07-31T09:13:00;19.13;84.30
68177;DHT22;56478;50.982;7.032;2023-07-31T09:15:27;19.21;84.30
68177;DHT22;56478;50.982;7.032;2023-07-31T09:18:03;19.28;84.05
68177;DHT22;56478;50.982;7.032;2023-07-31T09:20:28;19.21;83.23
68177;DHT22;56478;50.982;7.032;2023-07-31T09:22:55;19.31;82.51
68177;DHT22;56478;50.982;7.032;2023-07-31T09:25:25;19.35;82.68
68177;DHT22;56478;50.982;7.032;2023-07-31T09:27:58;19.14;83.45
68177;DHT22;56478;50.982;7.032;2023-07-31T09:30:24;19.06;84.58
68177;DHT22;56478;50.982;7.032;2023-07-31T09:32:51;19.17;83.76
68177;DHT22;56478;50.982;7.032;2023-07-31T09:35:28;19.18;83.68
68177;DHT22;56478;50.982;7.032;2023-07-31T09:37:57;19.23;83.15
68177;DHT22;56478;50.982;7.032;2023-07-31T09:40:33;19.15;82.43
68177;DHT22;56478;50.982;7.032;2023-07-31T09:43:04;19.14;83.29
68177;DHT22;56478;50.982;7.032;2023-07-31T09:45:33;19.21;83.12
68177;DHT22;56478;50.982;7.032;2023-07-31T09:47:58;19.11;82.30
68177;DHT22;56478;50.982;7.032;2023-07-31T09:50:24;19.32;82.49
68177;DHT22;56478;50.982;7.032;2023-07-31T09:52:53;19.28;83.56
68177;DHT22;56478;50.982;7.032;2023-07-31T09:55:19;19.31;82.44
68177;DHT22;56478;50.982;7.032;2023-07-31T09:57:48;19.36;82.69
68177;DHT22;56478;50.982;7.032;2023-07-31T10:00:18;19.52;82.85
68177;DHT22;56478;50.982;7.032;2023-07-31T10:02:46;19.47;83.13
68177;DHT22;56478;50.982;7.032;2023-07-31T10:05:14;19.58;82.36
68177;DHT22;56478;50.982;7.032;2023-07-31T10:07:43;19.58;81.78
68177;DHT22;56478;50.982;7.032;2023-07-31T10:10:09;19.76;83.03
68177;DHT22;56478;50.982;7.032;2023-07-31T10:12:35;19.70;81.16
68177;DHT22;56478;50.982;7.032;2023-07-31T10:15:02;19.83;82.25
68177;DHT22;56478;50.982;7.032;2023-07-31T10:17:29;19.73;81.22
68177;DHT22;56478;50.982;7.032;2023-07-31T10:19:57;19.76;84.00
68177;DHT22;56478;50.982;7.032;2023-07-31T10:22:23;19.77;83.75
68177;DHT22;56478;50.982;7.032;2023-07-31T10:24:50;19.87;81.95
68177;DHT22;56478;50.982;7.032;2023-07-31T10:27:17;19.97;80.80
68177;DHT22;56478;50.982;7.032;2023-07-31T10:29:43;20.03;81.01
68177;DHT22;56478;50.982;7.032;2023-07-31T10:32:12;20.00;80.57
68177;DHT22;56478;50.982;7.032;2023-07-31T10:34:39;20.09;80.24
68177;DHT22;56478;50.982;7.032;2023-07-31T10:37:28;20.22;79.97
68177;DHT22;56478;50.982;7.032;2023-07-31T10:43:05;20.07;80.98
68177;DHT22;56478;50.982;7.032;2023-07-31T10:45:33;20.09;82.26
68177;DHT22;56478;50.982;7.032;2023-07-31T10:48:06;20.16;82.51
68177;DHT22;56478;50.982;7.032;2023-07-31T10:50:38;20.06;82.73
68177;DHT22;56478;50.982;7.032;2023-07-31T10:53:04;20.04;81.06
68177;DHT22;56478;50.982;7.032;2023-07-31T10:55:49;20.07;83.16
68177;DHT22;56478;50.982;7.032;2023-07-31T10:58:18;20.16;83.80
68177;DHT22;56478;50.982;7.032;2023-07-31T11:00:44;20.06;82.20
68177;DHT22;56478;50.982;7.032;2023-07-31T11:03:17;20.18;80.79
68177;DHT22;56478;50.982;7.032;2023-07-31T11:06:13;20.20;80.93
68177;DHT22;56478;50.982;7.032;2023-07-31T11:08:46;20.14;79.81
68177;DHT22;56478;50.982;7.032;2023-07-31T11:11:14;20.17;80.19
68177;DHT22;56478;50.982;7.032;2023-07-31T11:13:51;20.04;79.49
68177;DHT22;56478;50.982;7.032;2023-07-31T11:16:19;19.96;81.10
68177;DHT22;56478;50.982;7.032;2023-07-31T11:18:46;20.03;81.53
68177;DHT22;56478;50.982;7.032;2023-07-31T11:21:15;20.01;81.70
68177;DHT22;56478;50.982;7.032;2023-07-31T11:23:41;20.06;83.02
68177;DHT22;56478;50.982;7.032;2023-07-31T11:26:10;20.18;82.08
68177;DHT22;56478;50.982;7.032;2023-07-31T11:28:37;20.35;81.10
68177;DHT22;56478;50.982;7.032;2023-07-31T11:31:04;20.75;77.33
68177;DHT22;56478;50.982;7.032;2023-07-31T11:33:30;21.23;77.92
68177;DHT22;56478;50.982;7.032;2023-07-31T11:35:56;21.63;76.32
68177;DHT22;56478;50.982;7.032;2023-07-31T11:38:23;21.56;76.09
68177;DHT22;56478;50.982;7.032;2023-07-31T11:40:49;21.82;72.76
68177;DHT22;56478;50.982;7.032;2023-07-31T11:43:15;21.65;75.21
68177;DHT22;56478;50.982;7.032;2023-07-31T11:45:47;21.66;76.95
68177;DHT22;56478;50.982;7.032;2023-07-31T11:48:26;21.45;72.91
68177;DHT22;56478;50.982;7.032;2023-07-31T11:50:54;21.39;74.52
68177;DHT22;56478;50.982;7.032;2023-07-31T11:53:25;21.48;75.42
68177;DHT22;56478;50.982;7.032;2023-07-31T11:55:52;21.55;73.98
68177;DHT22;56478;50.982;7.032;2023-07-31T11:58:18;21.66;74.50
68177;DHT22;56478;50.982;7.032;2023-07-31T12:00:44;21.87;71.26
68177;DHT22;56478;50.982;7.032;2023-07-31T12:03:10;21.80;73.22
68177;DHT22;56478;50.982;7.032;2023-07-31T12:05:37;21.48;73.05
68177;DHT22;56478;50.982;7.032;2023-07-31T12:08:09;21.41;74.18
68177;DHT22;56478;50.982;7.032;2023-07-31T12:10:36;21.37;75.70
68177;DHT22;56478;50.982;7.032;2023-07-31T12:13:12;21.17;76.96
68177;DHT22;56478;50.982;7.032;2023-07-31T12:15:45;21.04;74.20
68177;DHT22;56478;50.982;7.032;2023-07-31T12:18:13;20.93;76.63
68177;DHT22;56478;50.982;7.032;2023-07-31T12:20:48;20.80;74.92
68177;DHT22;56478;50.982;7.032;2023-07-31T12:23:36;20.82;75.34
68177;DHT22;56478;50.982;7.032;2023-07-31T12:26:06;20.86;75.34
68177;DHT22;56478;50.982;7.032;2023-07-31T12:28:45;20.87;75.20
68177;DHT22;56478;50.982;7.032;2023-07-31T12:31:12;20.94;76.53
68177;DHT22;56478;50.982;7.032;2023-07-31T12:33:39;20.86;76.64
68177;DHT22;56478;50.982;7.032;2023-07-31T12:36:16;20.91;76.56
68177;DHT22;56478;50.982;7.032;2023-07-31T12:38:42;20.94;74.74
68177;DHT22;56478;50.982;7.032;2023-07-31T12:41:08;20.93;77.25
68177;DHT22;56478;50.982;7.032;2023-07-31T12:43:39;20.84;76.35
68177;DHT22;56478;50.982;7.032;2023-07-31T12:46:05;20.97;75.03
68177;DHT22;56478;50.982;7.032;2023-07-31T12:48:33;21.10;74.26
68177;DHT22;56478;50.982;7.032;2023-07-31T12:50:58;21.18;75.61
68177;DHT22;56478;50.982;7.032;2023-07-31T12:53:24;21.23;76.77
68177;DHT22;56478;50.982;7.032;2023-07-31T12:55:50;21.06;75.51
68177;DHT22;56478;50.982;7.032;2023-07-31T12:58:15;21.21;74.70
68177;DHT22;56478;50.982;7.032;2023-07-31T13:00:41;21.20;74.57
68177;DHT22;56478;50.982;7.032;2023-07-31T13:03:07;21.18;74.54
68177;DHT22;56478;50.982;7.032;2023-07-31T13:05:33;21.18;75.21
68177;DHT22;56478;50.982;7.032;2023-07-31T13:07:59;21.17;73.55
68177;DHT22;56478;50.982;7.032;2023-07-31T13:10:24;21.17;74.30
68177;DHT22;56478;50.982;7.032;2023-07-31T13:12:52;21.15;73.68
68177;DHT22;56478;50.982;7.032;2023-07-31T13:15:17;21.32;73.44
68177;DHT22;56478;50.982;7.032;2023-07-31T13:17:43;21.48;73.10
68177;DHT22;56478;50.982;7.032;2023-07-31T13:20:09;21.37;74.65
68177;DHT22;56478;50.982;7.032;2023-07-31T13:22:34;21.39;74.73
68177;DHT22;56478;50.982;7.032;2023-07-31T13:25:00;21.51;73.57
68177;DHT22;56478;50.982;7.032;2023-07-31T13:27:25;21.48;76.26
68177;DHT22;56478;50.982;7.032;2023-07-31T13:29:51;21.38;73.06
68177;DHT22;56478;50.982;7.032;2023-07-31T13:32:18;21.31;73.64
68177;DHT22;56478;50.982;7.032;2023-07-31T13:34:44;21.31;75.51
68177;DHT22;56478;50.982;7.032;2023-07-31T13:37:09;21.55;73.10
68177;DHT22;56478;50.982;7.032;2023-07-31T13:39:35;21.63;72.40
68177;DHT22;56478;50.982;7.032;2023-07-31T13:42:04;21.63;72.43
68177;DHT22;56478;50.982;7.032;2023-07-31T13:44:33;21.69;73.31
68177;DHT22;56478;50.982;7.032;2023-07-31T13:46:59;21.65;73.44
68177;DHT22;56478;50.982;7.032;2023-07-31T13:49:26;21.79;73.90
68177;DHT22;56478;50.982;7.032;2023-07-31T13:51:51;21.80;71.56
68177;DHT22;56478;50.982;7.032;2023-07-31T13:54:17;21.79;72.36
68177;DHT22;56478;50.982;7.032;2023-07-31T13:56:43;21.86;69.73
68177;DHT22;56478;50.982;7.032;2023-07-31T13:59:10;21.87;69.50
68177;DHT22;56478;50.982;7.032;2023-07-31T14:01:35;22.28;70.86
68177;DHT22;56478;50.982;7.032;2023-07-31T14:04:01;22.56;69.54
68177;DHT22;56478;50.982;7.032;2023-07-31T14:06:27;22.93;68.19
68177;DHT22;56478;50.982;7.032;2023-07-31T14:08:53;22.82;66.55
68177;DHT22;56478;50.982;7.032;2023-07-31T14:11:18;22.93;65.88
68177;DHT22;56478;50.982;7.032;2023-07-31T14:13:44;22.46;68.09
68177;DHT22;56478;50.982;7.032;2023-07-31T14:16:10;22.24;68.04
68177;DHT22;56478;50.982;7.032;2023-07-31T14:18:35;22.08;69.90
68177;DHT22;56478;50.982;7.032;2023-07-31T14:21:01;22.00;68.74
68177;DHT22;56478;50.982;7.032;2023-07-31T14:23:26;22.12;67.31
68177;DHT22;56478;50.982;7.032;2023-07-31T14:25:52;21.97;68.18
68177;DHT22;56478;50.982;7.032;2023-07-31T14:28:18;21.94;67.57
68177;DHT22;56478;50.982;7.032;2023-07-31T14:30:43;21.70;68.50
68177;DHT22;56478;50.982;7.032;2023-07-31T14:33:09;21.55;69.56
68177;DHT22;56478;50.982;7.032;2023-07-31T14:35:35;21.38;69.76
68177;DHT22;56478;50.982;7.032;2023-07-31T14:38:01;21.38;70.38
68177;DHT22;56478;50.982;7.032;2023-07-31T14:40:27;21.37;69.89
68177;DHT22;56478;50.982;7.032;2023-07-31T14:42:52;21.35;70.64
68177;DHT22;56478;50.982;7.032;2023-07-31T14:45:18;21.25;69.97
68177;DHT22;56478;50.982;7.032;2023-07-31T14:47:44;21.28;69.69
68177;DHT22;56478;50.982;7.032;2023-07-31T14:50:10;21.20;70.19
68177;DHT22;56478;50.982;7.032;2023-07-31T14:52:35;21.25;70.19
68177;DHT22;56478;50.982;7.032;2023-07-31T14:55:01;21.37;70.05
68177;DHT22;56478;50.982;7.032;2023-07-31T14:57:27;21.38;69.15
68177;DHT22;56478;50.982;7.032;2023-07-31T14:59:52;21.42;69.51
68177;DHT22;56478;50.982;7.032;2023-07-31T15:02:18;21.34;69.63
68177;DHT22;56478;50.982;7.032;2023-07-31T15:04:44;21.32;69.41
68177;DHT22;56478;50.982;7.032;2023-07-31T15:07:09;21.42;69.31
68177;DHT22;56478;50.982;7.032;2023-07-31T15:09:35;21.30;69.04
68177;DHT22;56478;50.982;7.032;2023-07-31T15:12:01;21.31;69.68
68177;DHT22;56478;50.982;7.032;2023-07-31T15:14:26;21.38;69.86
68177;DHT22;56478;50.982;7.032;2023-07-31T15:16:56;21.37;69.56
68177;DHT22;56478;50.982;7.032;2023-07-31T15:19:22;21.28;69.56
68177;DHT22;56478;50.982;7.032;2023-07-31T15:21:49;21.28;69.47
68177;DHT22;56478;50.982;7.032;2023-07-31T15:24:14;21.32;69.88
68177;DHT22;56478;50.982;7.032;2023-07-31T15:26:40;21.25;69.88
68177;DHT22;56478;50.982;7.032;2023-07-31T15:29:07;21.35;69.75
68177;DHT22;56478;50.982;7.032;2023-07-31T15:31:43;21.25;69.13
68177;DHT22;56478;50.982;7.032;2023-07-31T15:34:09;21.24;68.67
68177;DHT22;56478;50.982;7.032;2023-07-31T15:36:35;21.11;69.69
68177;DHT22;56478;50.982;7.032;2023-07-31T15:39:00;21.14;69.37
68177;DHT22;56478;50.982;7.032;2023-07-31T15:41:26;21.04;70.30